createdAt,value
2022-08-12T00:02:03.609Z,98673.25
2022-08-12T00:04:56.232Z,98665.78
2022-08-12T00:07:41.852Z,98671.63
2022-08-12T00:10:34.314Z,98661.25
2022-08-12T00:13:19.704Z,98661.44
2022-08-12T00:16:11.232Z,98662.47
2022-08-12T00:19:03.242Z,98661.44
2022-08-12T00:21:55.251Z,98653.97
2022-08-12T00:24:41.550Z,98651.06
2022-08-12T00:27:43.791Z,98654.22
2022-08-12T00:30:30.173Z,98651.31
2022-08-12T00:33:22.264Z,98662.50
2022-08-12T00:36:34.966Z,98650.28
2022-08-12T00:39:22.731Z,98646.78
2022-08-12T00:42:15.444Z,98648.44
2022-08-12T00:44:43.484Z,98647.41
2022-08-12T00:47:25.576Z,98648.03
2022-08-12T00:50:00.241Z,98649.09
2022-08-12T00:52:48.217Z,98647.81
2022-08-12T00:55:15.125Z,98648.44
2022-08-12T00:57:44.478Z,98649.50
2022-08-12T01:00:21.285Z,98645.56
2022-08-12T01:02:58.239Z,98646.59
2022-08-12T01:05:44.692Z,98642.25
2022-08-12T01:08:57.252Z,98647.25
2022-08-12T01:11:32.822Z,98643.94
2022-08-12T01:14:07.449Z,98645.16
2022-08-12T01:16:41.251Z,98643.50
2022-08-12T01:19:15.221Z,98645.00
2022-08-12T01:22:02.408Z,98645.38
2022-08-12T01:24:31.375Z,98643.50
2022-08-12T01:27:08.006Z,98647.84
2022-08-12T01:29:38.119Z,98653.84
2022-08-12T01:32:15.204Z,98658.41
2022-08-12T01:34:46.932Z,98655.91
2022-08-12T01:37:23.227Z,98660.50
2022-08-12T01:40:36.149Z,98659.66
2022-08-12T01:42:55.209Z,98651.75
2022-08-12T01:45:25.031Z,98651.16
2022-08-12T01:48:07.327Z,98657.56
2022-08-12T01:50:40.240Z,98641.84
2022-08-12T01:53:18.237Z,98645.53
2022-08-12T01:55:52.803Z,98641.41
2022-08-12T01:58:29.243Z,98641.22
2022-08-12T02:01:03.832Z,98640.38
2022-08-12T02:03:37.233Z,98641.41
2022-08-12T02:06:28.360Z,98642.63
2022-08-12T02:09:23.218Z,98640.94
2022-08-12T02:12:06.099Z,98627.06
2022-08-12T02:14:57.224Z,98614.63
2022-08-12T02:17:55.968Z,98610.94
2022-08-12T02:20:35.392Z,98607.97
2022-08-12T02:23:19.425Z,98608.59
2022-08-12T02:25:53.224Z,98607.75
2022-08-12T02:28:20.160Z,98610.63
2022-08-12T02:30:53.293Z,98606.50
2022-08-12T02:33:20.495Z,98610.59
2022-08-12T02:35:54.222Z,98602.56
2022-08-12T02:38:21.812Z,98604.81
2022-08-12T02:40:51.953Z,98594.94
2022-08-12T02:43:47.395Z,98593.28
2022-08-12T02:46:22.230Z,98600.72
2022-08-12T02:48:53.211Z,98599.56
2022-08-12T02:51:30.228Z,98605.78
2022-08-12T02:54:06.238Z,98601.63
2022-08-12T02:56:50.398Z,98606.31
2022-08-12T02:59:26.219Z,98597.84
2022-08-12T03:01:57.241Z,98595.56
2022-08-12T03:04:43.705Z,98603.22
2022-08-12T03:07:23.204Z,98600.31
2022-08-12T03:10:07.109Z,98603.81
2022-08-12T03:12:53.296Z,98600.06
2022-08-12T03:15:22.383Z,98594.88
2022-08-12T03:18:24.541Z,98592.81
2022-08-12T03:20:42.850Z,98598.19
2022-08-12T03:23:30.166Z,98589.91
2022-08-12T03:25:59.163Z,98595.06
2022-08-12T03:28:51.545Z,98594.84
2022-08-12T03:31:20.065Z,98602.22
2022-08-12T03:34:01.949Z,98600.16
2022-08-12T03:36:29.552Z,98597.28
2022-08-12T03:39:35.317Z,98600.34
2022-08-12T03:42:12.255Z,98601.78
2022-08-12T03:45:24.215Z,98598.41
2022-08-12T03:48:18.676Z,98600.28
2022-08-12T03:51:11.221Z,98603.34
2022-08-12T03:54:17.208Z,98598.34
2022-08-12T03:57:02.170Z,98595.22
2022-08-12T03:59:54.247Z,98593.13
2022-08-12T04:02:27.229Z,98605.50
2022-08-12T04:04:54.293Z,98614.38
2022-08-12T04:07:28.214Z,98608.38
2022-08-12T04:09:55.932Z,98607.63
2022-08-12T04:12:51.250Z,98611.94
2022-08-12T04:15:23.096Z,98620.38
2022-08-12T04:18:06.647Z,98618.34
2022-08-12T04:20:35.095Z,98617.50
2022-08-12T04:23:09.397Z,98615.41
2022-08-12T04:25:43.206Z,98621.16
2022-08-12T04:28:13.476Z,98616.75
2022-08-12T04:30:47.196Z,98612.81
2022-08-12T04:33:15.004Z,98614.22
2022-08-12T04:35:41.609Z,98615.28
2022-08-12T04:38:15.253Z,98614.22
2022-08-12T04:40:41.865Z,98620.63
2022-08-12T04:43:55.318Z,98625.53
2022-08-12T04:46:09.188Z,98628.41
2022-08-12T04:48:35.778Z,98624.69
2022-08-12T04:51:09.209Z,98626.31
2022-08-12T04:53:56.174Z,98640.88
2022-08-12T04:56:30.203Z,98644.84
2022-08-12T04:59:02.575Z,98647.56
2022-08-12T05:01:38.197Z,98653.56
2022-08-12T05:04:06.383Z,98646.09
2022-08-12T05:06:39.193Z,98653.91
2022-08-12T05:09:13.132Z,98655.41
2022-08-12T05:11:54.223Z,98656.09
2022-08-12T05:14:21.172Z,98658.00
2022-08-12T05:16:54.192Z,98657.34
2022-08-12T05:19:22.730Z,98657.44
2022-08-12T05:21:56.202Z,98652.69
2022-08-12T05:24:29.223Z,98667.25
2022-08-12T05:26:56.131Z,98661.50
2022-08-12T05:30:07.746Z,98671.72
2022-08-12T05:32:27.166Z,98675.78
2022-08-12T05:35:00.190Z,98672.09
2022-08-12T05:37:26.736Z,98676.81
2022-08-12T05:40:00.237Z,98668.88
2022-08-12T05:42:34.580Z,98670.16
2022-08-12T05:45:01.790Z,98669.63
2022-08-12T05:47:36.634Z,98671.31
2022-08-12T05:50:22.248Z,98673.56
2022-08-12T05:52:55.420Z,98667.75
2022-08-12T05:55:42.217Z,98669.63
2022-08-12T05:58:15.176Z,98666.97
2022-08-12T06:00:42.532Z,98670.56
2022-08-12T06:03:16.233Z,98665.28
2022-08-12T06:05:55.127Z,98657.84
2022-08-12T06:08:29.193Z,98664.75
2022-08-12T06:11:03.163Z,98664.56
2022-08-12T06:13:53.910Z,98662.50
2022-08-12T06:16:23.521Z,98669.78
2022-08-12T06:18:57.195Z,98668.75
2022-08-12T06:21:23.873Z,98670.84
2022-08-12T06:23:58.185Z,98675.84
2022-08-12T06:26:31.190Z,98674.19
2022-08-12T06:29:00.847Z,98677.91
2022-08-12T06:31:34.169Z,98672.16
2022-08-12T06:35:26.456Z,98677.59
2022-08-12T06:37:02.246Z,98673.41
2022-08-12T06:39:36.258Z,98670.59
2022-08-12T06:42:33.187Z,98673.69
2022-08-12T06:45:07.392Z,98672.28
2022-08-12T06:47:37.309Z,98676.47
2022-08-12T06:50:11.203Z,98675.41
2022-08-12T06:52:44.209Z,98678.53
2022-08-12T06:55:20.736Z,98675.47
2022-08-12T06:58:07.992Z,98664.91
2022-08-12T07:00:37.484Z,98671.34
2022-08-12T07:03:16.301Z,98658.09
2022-08-12T07:05:56.346Z,98668.25
2022-08-12T07:08:25.710Z,98670.75
2022-08-12T07:11:08.178Z,98666.22
2022-08-12T07:14:11.406Z,98667.03
2022-08-12T07:16:58.153Z,98665.41
2022-08-12T07:19:25.194Z,98662.50
2022-08-12T07:22:14.206Z,98666.47
2022-08-12T07:24:42.325Z,98668.75
2022-08-12T07:27:15.243Z,98660.06
2022-08-12T07:29:58.023Z,98655.72
2022-08-12T07:32:35.164Z,98654.69
2022-08-12T07:35:04.290Z,98654.69
2022-08-12T07:37:38.182Z,98653.25
2022-08-12T07:40:11.204Z,98651.19
2022-08-12T07:42:38.499Z,98651.59
2022-08-12T07:45:14.166Z,98650.53
2022-08-12T07:47:44.012Z,98656.56
2022-08-12T07:50:23.603Z,98655.50
2022-08-12T07:52:57.177Z,98653.22
2022-08-12T07:55:37.365Z,98659.00
2022-08-12T07:58:04.341Z,98657.94
2022-08-12T08:00:38.204Z,98655.03
2022-08-12T08:03:04.905Z,98657.31
2022-08-12T08:05:53.170Z,98645.88
2022-08-12T08:08:23.802Z,98650.06
2022-08-12T08:10:51.677Z,98653.31
2022-08-12T08:13:25.318Z,98647.47
2022-08-12T08:16:09.182Z,98647.47
2022-08-12T08:18:44.168Z,98648.31
2022-08-12T08:21:11.119Z,98644.97
2022-08-12T08:24:05.267Z,98642.91
2022-08-12T08:26:32.626Z,98638.94
2022-08-12T08:29:06.193Z,98649.66
2022-08-12T08:31:32.872Z,98645.75
2022-08-12T08:34:47.366Z,98638.88
2022-08-12T08:36:54.806Z,98642.41
2022-08-12T08:39:34.204Z,98647.16
2022-08-12T08:42:20.557Z,98648.41
2022-08-12T08:45:19.173Z,98649.41
2022-08-12T08:47:57.219Z,98647.09
2022-08-12T08:50:34.174Z,98647.69
2022-08-12T08:53:07.154Z,98646.22
2022-08-12T08:56:04.769Z,98654.94
2022-08-12T08:58:38.145Z,98656.34
2022-08-12T09:01:05.120Z,98657.63
2022-08-12T09:05:08.692Z,98648.03
2022-08-12T09:06:37.076Z,98648.03
2022-08-12T09:09:13.411Z,98656.31
2022-08-12T09:12:11.039Z,98662.75
2022-08-12T09:14:51.197Z,98664.41
2022-08-12T09:17:21.188Z,98653.75
2022-08-12T09:19:58.248Z,98667.03
2022-08-12T09:25:25.570Z,98647.25
2022-08-12T09:28:04.316Z,98650.56
2022-08-12T09:30:51.145Z,98645.53
2022-08-12T09:34:25.312Z,98636.09
2022-08-12T09:36:11.192Z,98634.84
2022-08-12T09:38:59.213Z,98629.38
2022-08-12T09:42:33.228Z,98635.94
2022-08-12T09:44:46.211Z,98637.53
2022-08-12T09:47:33.583Z,98631.84
2022-08-12T09:50:07.152Z,98629.28
2022-08-12T09:52:54.184Z,98627.78
2022-08-12T09:56:06.219Z,98622.09
2022-08-12T09:58:57.316Z,98620.97
2022-08-12T10:01:23.176Z,98604.72
2022-08-12T10:04:04.523Z,98611.31
2022-08-12T10:06:55.583Z,98606.19
2022-08-12T10:09:28.556Z,98603.03
2022-08-12T10:12:36.131Z,98607.53
2022-08-12T10:15:03.207Z,98596.41
2022-08-12T10:17:36.130Z,98598.81
2022-08-12T10:20:29.146Z,98580.56
2022-08-12T10:23:01.732Z,98584.84
2022-08-12T10:26:34.381Z,98576.06
2022-08-12T10:29:02.638Z,98569.72
2022-08-12T10:32:20.218Z,98572.56
2022-08-12T10:34:26.558Z,98556.22
2022-08-12T10:37:15.649Z,98565.56
2022-08-12T10:40:01.739Z,98553.94
2022-08-12T10:43:03.121Z,98551.81
2022-08-12T10:45:31.382Z,98548.75
2022-08-12T10:48:21.712Z,98551.94
2022-08-12T10:51:01.185Z,98545.47
2022-08-12T10:53:44.283Z,98547.81
2022-08-12T10:56:23.229Z,98537.78
2022-08-12T10:58:56.176Z,98536.59
2022-08-12T11:01:50.213Z,98525.28
2022-08-12T11:04:35.725Z,98524.78
2022-08-12T11:08:35.907Z,98529.72
2022-08-12T11:10:02.498Z,98525.25
2022-08-12T11:12:59.529Z,98527.81
2022-08-12T11:16:02.819Z,98519.31
2022-08-12T11:18:20.152Z,98523.50
2022-08-12T11:20:57.927Z,98523.09
2022-08-12T11:23:36.967Z,98528.38
2022-08-12T11:26:12.150Z,98530.19
2022-08-12T11:28:38.992Z,98525.81
2022-08-12T11:31:14.177Z,98522.03
2022-08-12T11:34:06.098Z,98510.69
2022-08-12T11:36:41.288Z,98512.91
2022-08-12T11:39:23.383Z,98516.09
2022-08-12T11:42:13.093Z,98517.88
2022-08-12T11:44:46.110Z,98515.22
2022-08-12T11:47:12.654Z,98514.25
2022-08-12T11:49:49.833Z,98516.16
2022-08-12T11:52:54.811Z,98515.69
2022-08-12T11:55:18.267Z,98519.47
2022-08-12T11:58:33.794Z,98517.75
2022-08-12T12:03:46.494Z,98520.34
2022-08-12T12:06:17.919Z,98517.09
2022-08-12T12:08:53.979Z,98517.50
2022-08-12T12:11:21.766Z,98522.03
2022-08-12T12:14:08.149Z,98518.34
2022-08-12T12:16:39.963Z,98522.22
2022-08-12T12:19:16.120Z,98520.38
2022-08-12T12:21:49.627Z,98526.69
2022-08-12T12:24:21.401Z,98529.22
2022-08-12T12:27:00.723Z,98527.94
2022-08-12T12:30:13.954Z,98520.91
2022-08-12T12:32:22.982Z,98522.63
2022-08-12T12:35:14.637Z,98521.66
2022-08-12T12:38:05.133Z,98520.75
2022-08-12T12:40:39.818Z,98516.47
2022-08-12T12:43:13.863Z,98511.84
2022-08-12T12:45:44.569Z,98512.47
2022-08-12T12:48:21.121Z,98505.63
2022-08-12T12:51:09.282Z,98509.19
2022-08-12T12:54:06.599Z,98512.03
2022-08-12T12:56:40.543Z,98503.06
2022-08-12T12:59:55.366Z,98504.78
2022-08-12T13:02:14.140Z,98502.69
2022-08-12T13:05:00.104Z,98501.03
2022-08-12T13:07:49.425Z,98503.16
2022-08-12T13:10:23.898Z,98504.72
2022-08-12T13:12:57.128Z,98504.06
2022-08-12T13:15:45.496Z,98505.03
2022-08-12T13:18:17.148Z,98498.41
2022-08-12T13:20:47.128Z,98496.97
2022-08-12T13:23:35.939Z,98502.28
2022-08-12T13:26:04.017Z,98505.09
2022-08-12T13:28:38.141Z,98513.59
2022-08-12T13:31:10.156Z,98506.63
2022-08-12T13:34:28.599Z,98504.16
2022-08-12T13:36:38.146Z,98505.25
2022-08-12T13:39:05.255Z,98503.31
2022-08-12T13:41:34.305Z,98497.78
2022-08-12T13:44:10.478Z,98497.91
2022-08-12T13:46:38.754Z,98497.16
2022-08-12T13:49:17.642Z,98496.72
2022-08-12T13:52:07.126Z,98497.28
2022-08-12T13:54:41.178Z,98496.00
2022-08-12T13:57:23.159Z,98498.94
2022-08-12T13:59:55.354Z,98493.75
2022-08-12T14:02:29.218Z,98491.34
2022-08-12T14:04:56.977Z,98494.13
2022-08-12T14:07:31.097Z,98493.47
2022-08-12T14:10:36.403Z,98498.06
2022-08-12T14:13:17.103Z,98494.50
2022-08-12T14:16:02.282Z,98503.59
2022-08-12T14:18:37.157Z,98499.44
2022-08-12T14:21:10.198Z,98495.75
2022-08-12T14:24:06.255Z,98498.47
2022-08-12T14:26:46.138Z,98494.91
2022-08-12T14:29:37.875Z,98486.09
2022-08-12T14:32:06.125Z,98480.22
2022-08-12T14:34:40.148Z,98483.56
2022-08-12T14:37:12.972Z,98482.53
2022-08-12T14:40:07.152Z,98491.75
2022-08-12T14:42:40.271Z,98491.75
2022-08-12T14:45:14.129Z,98479.25
2022-08-12T14:47:58.354Z,98483.88
2022-08-12T14:50:58.255Z,98481.72
2022-08-12T14:59:57.319Z,98476.13
2022-08-12T15:02:20.631Z,98474.44
2022-08-12T15:04:55.117Z,98471.97
2022-08-12T15:07:34.151Z,98463.00
2022-08-12T15:10:31.339Z,98463.00
2022-08-12T15:13:00.155Z,98467.06
2022-08-12T15:15:34.261Z,98468.94
2022-08-12T15:18:09.129Z,98455.28
2022-08-12T15:20:43.148Z,98459.06
2022-08-12T15:23:21.466Z,98465.06
2022-08-12T15:26:02.509Z,98452.81
2022-08-12T15:28:32.334Z,98458.25
2022-08-12T15:31:09.504Z,98465.84
2022-08-12T15:33:52.882Z,98459.56
2022-08-12T15:36:55.122Z,98468.31
2022-08-12T15:39:20.149Z,98471.84
2022-08-12T15:41:50.407Z,98474.56
2022-08-12T15:44:41.871Z,98475.38
2022-08-12T15:47:10.033Z,98474.56
2022-08-12T15:50:00.335Z,98468.03
2022-08-12T15:52:35.138Z,98454.44
2022-08-12T15:55:11.634Z,98451.47
2022-08-12T15:58:00.135Z,98452.25
2022-08-12T16:00:33.440Z,98455.44
2022-08-12T16:03:08.566Z,98455.97
2022-08-12T16:06:16.800Z,98464.69
2022-08-12T16:08:41.436Z,98459.75
2022-08-12T16:11:18.872Z,98463.03
2022-08-12T16:13:52.132Z,98454.63
2022-08-12T16:16:25.381Z,98462.88
2022-08-12T16:19:09.587Z,98464.59
2022-08-12T16:21:51.991Z,98467.19
2022-08-12T16:24:32.478Z,98466.72
2022-08-12T16:27:08.125Z,98461.09
2022-08-12T16:29:53.224Z,98463.03
2022-08-12T16:32:31.819Z,98463.03
2022-08-12T16:35:05.183Z,98457.84
2022-08-12T16:38:24.927Z,98460.88
2022-08-12T16:40:28.757Z,98460.38
2022-08-12T16:43:04.778Z,98471.25
2022-08-12T16:46:05.169Z,98458.72
2022-08-12T16:48:36.147Z,98462.00
2022-08-12T16:51:05.861Z,98459.34
2022-08-12T16:53:46.332Z,98460.16
2022-08-12T16:56:21.243Z,98455.56
2022-08-12T16:59:02.118Z,98461.28
2022-08-12T17:01:32.094Z,98453.97
2022-08-12T17:04:14.126Z,98450.41
2022-08-12T17:06:43.491Z,98463.75
2022-08-12T17:09:18.447Z,98465.03
2022-08-12T17:11:49.287Z,98462.53
2022-08-12T17:14:24.776Z,98455.97
2022-08-12T17:16:54.781Z,98456.16
2022-08-12T17:20:28.916Z,98461.50
2022-08-12T17:22:16.633Z,98447.38
2022-08-12T17:24:55.516Z,98451.53
2022-08-12T17:27:23.993Z,98450.75
2022-08-12T17:30:03.650Z,98457.97
2022-08-12T17:32:40.119Z,98460.44
2022-08-12T17:35:30.190Z,98460.75
2022-08-12T17:38:12.193Z,98462.50
2022-08-12T17:40:39.369Z,98465.31
2022-08-12T17:43:51.805Z,98465.97
2022-08-12T17:46:06.909Z,98468.50
2022-08-12T17:48:54.852Z,98468.91
2022-08-12T17:51:24.094Z,98472.53
2022-08-12T17:54:12.464Z,98473.13
2022-08-12T17:56:54.194Z,98467.25
2022-08-12T17:59:47.689Z,98466.00
2022-08-12T18:02:25.460Z,98476.44
2022-08-12T18:05:04.616Z,98478.69
2022-08-12T18:07:43.265Z,98472.59
2022-08-12T18:10:11.957Z,98474.13
2022-08-12T18:12:53.372Z,98467.53
2022-08-12T18:15:26.142Z,98468.97
2022-08-12T18:18:01.158Z,98477.44
2022-08-12T18:20:28.856Z,98479.34
2022-08-12T18:22:56.062Z,98492.44
2022-08-12T18:26:15.769Z,98485.25
2022-08-12T18:28:43.107Z,98501.06
2022-08-12T18:31:20.158Z,98494.72
2022-08-12T18:33:56.101Z,98499.41
2022-08-12T18:36:38.216Z,98495.75
2022-08-12T18:39:15.414Z,98493.75
2022-08-12T18:41:53.099Z,98490.13
2022-08-12T18:44:29.145Z,98499.38
2022-08-12T18:46:59.664Z,98498.22
2022-08-12T18:49:39.717Z,98504.56
2022-08-12T18:52:11.372Z,98501.97
2022-08-12T18:54:55.730Z,98508.88
2022-08-12T18:58:00.459Z,98513.94
2022-08-12T19:00:30.100Z,98510.28
2022-08-12T19:02:58.539Z,98512.63
2022-08-12T19:05:54.167Z,98514.16
2022-08-12T19:08:19.785Z,98508.22
2022-08-12T19:10:58.107Z,98503.03
2022-08-12T19:13:43.753Z,98517.28
2022-08-12T19:16:17.276Z,98518.53
2022-08-12T19:18:45.785Z,98506.91
2022-08-12T19:21:20.285Z,98509.72
2022-08-12T19:24:07.326Z,98508.28
2022-08-12T19:26:42.140Z,98508.38
2022-08-12T19:29:10.744Z,98506.00
2022-08-12T19:31:57.321Z,98502.34
2022-08-12T19:38:02.458Z,98502.78
2022-08-12T19:40:32.743Z,98509.31
2022-08-12T19:43:19.029Z,98496.72
2022-08-12T19:46:00.081Z,98499.69
2022-08-12T19:48:37.112Z,98501.81
2022-08-12T19:51:08.884Z,98502.13
2022-08-12T19:54:01.093Z,98499.03
2022-08-12T19:56:36.237Z,98499.25
2022-08-12T19:59:42.915Z,98498.22
2022-08-12T20:02:38.117Z,98504.31
2022-08-12T20:06:03.279Z,98515.63
2022-08-12T20:08:05.088Z,98508.22
2022-08-12T20:10:36.244Z,98504.31
2022-08-12T20:13:18.973Z,98505.88
2022-08-12T20:15:59.540Z,98504.34
2022-08-12T20:18:53.206Z,98499.19
2022-08-12T20:21:24.208Z,98500.91
2022-08-12T20:24:00.811Z,98504.38
2022-08-12T20:26:27.994Z,98512.06
2022-08-12T20:29:02.116Z,98506.69
2022-08-12T20:31:31.735Z,98498.56
2022-08-12T20:34:09.081Z,98504.19
2022-08-12T20:36:57.312Z,98505.28
2022-08-12T20:39:52.097Z,98501.59
2022-08-12T20:42:25.100Z,98503.91
2022-08-12T20:45:01.263Z,98507.50
2022-08-12T20:47:46.340Z,98504.63
2022-08-12T20:50:14.242Z,98508.81
2022-08-12T20:52:47.329Z,98505.91
2022-08-12T20:55:21.402Z,98505.09
2022-08-12T20:58:25.180Z,98507.22
2022-08-12T21:00:58.101Z,98503.31
2022-08-12T21:03:52.831Z,98502.69
2022-08-12T21:06:50.087Z,98507.25
2022-08-12T21:09:22.097Z,98509.94
2022-08-12T21:11:57.097Z,98508.28
2022-08-12T21:14:39.544Z,98504.97
2022-08-12T21:17:24.127Z,98507.72
2022-08-12T21:20:13.805Z,98506.06
2022-08-12T21:22:55.137Z,98503.56
2022-08-12T21:25:21.798Z,98503.63
2022-08-12T21:27:58.635Z,98506.13
2022-08-12T21:30:37.271Z,98509.50
2022-08-12T21:33:14.852Z,98507.19
2022-08-12T21:35:43.613Z,98507.00
2022-08-12T21:38:17.099Z,98506.19
2022-08-12T21:40:53.156Z,98508.72
2022-08-12T21:43:26.097Z,98495.88
2022-08-12T21:46:09.348Z,98497.50
2022-08-12T21:49:04.750Z,98500.84
2022-08-12T21:51:49.566Z,98509.59
2022-08-12T21:54:28.063Z,98507.13
2022-08-12T21:57:02.193Z,98512.72
2022-08-12T21:59:35.134Z,98506.03
2022-08-12T22:02:02.362Z,98503.97
2022-08-12T22:04:54.089Z,98510.03
2022-08-12T22:07:28.912Z,98507.78
2022-08-12T22:10:20.143Z,98512.56
2022-08-12T22:12:57.520Z,98506.56
2022-08-12T22:15:34.057Z,98513.00
2022-08-12T22:18:04.824Z,98516.97
2022-08-12T22:20:38.064Z,98516.72
2022-08-12T22:23:21.730Z,98516.94
2022-08-12T22:26:03.069Z,98516.75
2022-08-12T22:28:48.266Z,98515.91
2022-08-12T22:31:24.134Z,98515.28
2022-08-12T22:33:59.900Z,98519.84
2022-08-12T22:36:34.102Z,98514.28
2022-08-12T22:39:00.812Z,98506.41
2022-08-12T22:41:56.926Z,98509.69
2022-08-12T22:44:52.537Z,98508.47
2022-08-12T22:47:53.708Z,98509.72
2022-08-12T22:50:29.550Z,98506.41
2022-08-12T22:53:15.457Z,98506.41
2022-08-12T22:56:00.036Z,98503.97
2022-08-12T22:58:34.010Z,98506.44
2022-08-12T23:01:07.078Z,98505.63
2022-08-12T23:03:48.489Z,98507.47
2022-08-12T23:06:30.089Z,98507.28
2022-08-12T23:08:56.871Z,98505.63
2022-08-12T23:11:36.218Z,98504.19
2022-08-12T23:14:07.480Z,98503.97
2022-08-12T23:16:41.154Z,98509.16
2022-08-12T23:19:23.179Z,98498.59
2022-08-12T23:22:06.761Z,98499.03
2022-08-12T23:24:55.805Z,98504.41
2022-08-12T23:27:50.311Z,98503.13
2022-08-12T23:30:31.585Z,98506.88
2022-08-12T23:33:01.799Z,98503.56
2022-08-12T23:35:53.634Z,98509.56
2022-08-12T23:38:31.399Z,98508.53
2022-08-12T23:41:06.261Z,98501.50
2022-08-12T23:43:48.791Z,98497.38
2022-08-12T23:46:18.404Z,98498.59
2022-08-12T23:48:53.091Z,98500.66
2022-08-12T23:51:24.647Z,98500.28
2022-08-12T23:54:04.106Z,98508.94
2022-08-12T23:56:45.061Z,98511.44
2022-08-12T23:59:24.747Z,98517.00
